Ironwood, MI

3:48 AM CDT on May 04, 2015 (GMT -0500)
North of US 2 | | Change Station
CLOSE
Current Station
Personal Weather Station
Location: Ironwood, MI
Elevation: 1490 ft
Nearby Weather Stations

Elev 1490 ft 46.47 °N, 90.15 °W | Updated 15 seconds ago

Partly Cloudy
Partly Cloudy
50.2 °F
Feels Like 50.2 °F
N
0.0
Wind Variable Wind from WNW
Gusts 0.0 mph

Today
High -- | Low -- °F
--% Chance of Precip.
Yesterday
High -- | Low -- °F
Precip. -- in
5:42 AM 8:13 PM
Full, 100% visible
Pressure 29.97 in
Visibility 10.0 miles
Clouds Overcast 7500 ft
Dew Point 43 °F
Humidity 77%
Rainfall 0.00 in
Snow Depth Not available.
UV 0.0 out of 12
Pollen 11.00 out of 12
Air Quality Not available.
Flu Activity Regional
METAR KIWD 040835Z AUTO 33007KT 10SM OVC075 11/02 A2997 RMK AO1

More Conditions Fewer Conditions

Pressure 29.97 in
Visibility 10.0 miles
Clouds Overcast 7500 ft
Dew Point 43 °F
Humidity 77%
Rainfall 0.00 in
Snow Depth Not available.
UV 0.0 out of 12
Pollen 11.00 out of 12
Air Quality Not available.
Flu Activity Regional
METAR KIWD 040835Z AUTO 33007KT 10SM OVC075 11/02 A2997 RMK AO1

More Conditions Fewer Conditions

Nepal has a long way to go to dig out and rebuild from a devastating earthquake. We have teamed up with several charities and organizations to make contributing to the relief effort as easy as possible.
How you can help: Portlight Strategies | Red Cross

10-Day Weather Forecast

Almanac

Astronomy

May. 04, 2015 Rise Set
Actual Time
Civil Twilight
Nautical Twilight
Astronomical Twilight
Moon
Length of Visible Light
Length of Day
Tomorrow will be .
, % of the Moon is Illuminated

Today's Extremes

State Highs State Lows

Community

WunderPhotos

Upload Photos

1,818,548 photos uploaded!

WunderBlogs® & News

Nearby

Air Quality

  Air Quality AQ Index Pollutant
Not available.

Snow Depth

Station Depth Elevation

Earthquake Activity

City Distance Mag. Time & Date
Minimum magnitude displayed is 2.5.

Coastal Water Temperatures

Place Temperature

Stations

Nearby Weather Stations

Station Location Temp. Windchill Dew Point Humidity Wind Precip. Elev Updated Type